Time;durP1;ratioP1;P1;durP2;ratioP2;P2;SDS_P1;SDS_P2;PMS_P1;PMS_P2;Temp;Humidity;BMP_temperature;BMP_pressure;BME280_temperature;BME280_humidity;BME280_pressure;Samples;Min_cycle;Max_cycle;Signal;HPM_P1;HPM_P2
2022/01/25 00:31:17;;;;;;;27.90;16.02;;;;;;;-7.02;77.42;100777.00;5058937;28;20033;-58
2022/01/25 00:33:52;;;;;;;24.90;14.93;;;;;;;-6.89;77.30;100764.47;5049307;28;20075;-58
2022/01/25 00:36:23;;;;;;;26.17;14.80;;;;;;;-7.14;76.85;100745.22;5055543;28;20378;-57
2022/01/25 00:38:51;;;;;;;27.13;15.73;;;;;;;-6.90;76.85;100765.22;5057615;28;20060;-58
2022/01/25 00:41:17;;;;;;;21.42;13.52;;;;;;;-6.74;77.03;100748.59;5049943;28;20033;-58
2022/01/25 00:43:44;;;;;;;25.77;14.73;;;;;;;-6.68;75.27;100746.47;5043787;28;20033;-58
2022/01/25 00:46:12;;;;;;;22.92;13.90;;;;;;;-7.19;76.86;100701.25;5046852;28;20029;-58
2022/01/25 00:51:21;;;;;;;26.75;14.90;;;;;;;-7.06;76.11;100755.78;5042780;28;20029;-58
2022/01/25 00:56:21;;;;;;;27.77;15.45;;;;;;;-6.76;77.34;100746.84;5044064;28;20022;-57
2022/01/25 00:58:46;;;;;;;23.73;14.27;;;;;;;-6.66;76.72;100734.88;5059912;28;20025;-58
2022/01/25 01:01:12;;;;;;;27.38;14.52;;;;;;;-6.65;75.78;100734.09;5043082;28;20323;-58
2022/01/25 01:03:38;;;;;;;27.63;15.55;;;;;;;-6.64;75.24;100723.22;5056000;28;20092;-57
2022/01/25 01:06:05;;;;;;;27.48;16.42;;;;;;;-6.51;75.87;100709.78;5044984;28;20033;-56
2022/01/25 01:08:32;;;;;;;24.25;15.60;;;;;;;-6.54;74.95;100718.03;5052710;28;20066;-57
2022/01/25 01:10:59;;;;;;;24.25;14.68;;;;;;;-6.55;75.01;100713.75;5057339;28;20033;-58
2022/01/25 01:16:39;;;;;;;23.45;14.25;;;;;;;-6.54;74.38;100702.91;5043336;28;20091;-58
2022/01/25 01:42:56;;;;;;;24.92;14.07;;;;;;;-6.81;75.64;100647.50;4999343;28;1243023;-57
2022/01/25 01:50:30;;;;;;;20.83;12.93;;;;;;;-6.71;75.58;100631.31;5038911;28;20037;-57
2022/01/25 01:52:56;;;;;;;;;;;;;;;-6.88;76.22;100627.72;5041941;28;20033;-57
2022/01/25 01:55:23;;;;;;;21.95;13.10;;;;;;;-6.70;75.60;100625.50;5043759;28;19913;-57
2022/01/25 01:57:49;;;;;;;25.75;14.07;;;;;;;-6.91;75.58;100627.53;5043688;28;20372;-58
2022/01/25 02:00:18;;;;;;;21.77;13.40;;;;;;;-6.64;77.28;100632.56;5042398;28;20127;-58
2022/01/25 02:02:43;;;;;;;20.35;13.30;;;;;;;-6.54;76.34;100616.38;5043488;28;20034;-57
2022/01/25 02:05:09;;;;;;;23.23;14.05;;;;;;;-6.78;76.02;100616.59;5052432;28;20254;-58
2022/01/25 02:07:35;;;;;;;23.20;13.52;;;;;;;-6.74;75.69;100611.00;5057626;28;20040;-57
2022/01/25 02:10:03;;;;;;;23.83;13.77;;;;;;;-6.81;76.51;100597.13;5057795;28;20071;-58
2022/01/25 02:12:29;;;;;;;21.45;13.18;;;;;;;-6.60;77.20;100611.84;5057624;28;20025;-59
2022/01/25 02:14:55;;;;;;;24.33;14.07;;;;;;;-6.89;76.39;100602.47;5057798;28;20040;-59
2022/01/25 02:22:59;;;;;;;20.67;13.70;;;;;;;-6.71;76.47;100596.06;5028206;28;20327;-59
2022/01/25 02:25:25;;;;;;;22.83;13.10;;;;;;;-6.68;76.04;100603.81;5044243;28;20192;-59
2022/01/25 02:27:51;;;;;;;24.15;14.50;;;;;;;-6.91;75.49;100604.88;5059503;28;20051;-59
2022/01/25 02:30:17;;;;;;;23.17;14.10;;;;;;;-6.94;76.84;100592.06;5043478;28;20214;-59
2022/01/25 02:32:43;;;;;;;25.95;14.43;;;;;;;-6.97;77.18;100582.72;5041415;28;20033;-57
2022/01/25 02:35:10;;;;;;;22.08;13.68;;;;;;;-6.76;78.02;100582.31;5051290;28;20032;-57
2022/01/25 02:37:38;;;;;;;21.08;13.95;;;;;;;-6.69;77.02;100576.88;5057147;28;20055;-58
2022/01/25 02:40:05;;;;;;;22.40;13.18;;;;;;;-6.63;75.91;100578.91;5060574;28;20040;-58
2022/01/25 02:42:31;;;;;;;19.33;12.95;;;;;;;-6.48;76.79;100581.50;5050297;28;20356;-58
2022/01/25 02:44:57;;;;;;;22.40;14.10;;;;;;;-6.46;77.20;100578.28;5046201;28;20033;-58
2022/01/25 02:50:07;;;;;;;21.23;13.18;;;;;;;-6.49;77.02;100573.06;5047463;28;20025;-58
2022/01/25 02:52:33;;;;;;;22.15;12.65;;;;;;;-6.32;76.85;100565.66;5059699;28;20082;-58
2022/01/25 02:54:59;;;;;;;21.83;14.07;;;;;;;-6.33;76.34;100567.28;5045239;28;20036;-58
2022/01/25 02:57:25;;;;;;;19.52;12.48;;;;;;;-6.44;76.04;100545.63;5046209;28;20034;-58
2022/01/25 02:59:51;;;;;;;21.40;13.30;;;;;;;-6.57;76.61;100555.75;5060558;28;20029;-57
2022/01/25 03:02:17;;;;;;;21.35;13.25;;;;;;;-6.55;77.11;100555.06;5060291;28;20059;-58
2022/01/25 03:04:42;;;;;;;18.45;13.15;;;;;;;-6.62;76.80;100536.16;5060128;28;20039;-57
2022/01/25 03:07:09;;;;;;;23.05;13.85;;;;;;;-6.52;77.44;100541.78;5060021;28;20024;-57
2022/01/25 03:09:35;;;;;;;20.50;13.23;;;;;;;-6.38;76.82;100552.69;5059877;28;20096;-57
2022/01/25 03:12:05;;;;;;;21.55;13.32;;;;;;;-6.44;76.82;100561.63;5058604;28;20099;-58
2022/01/25 03:14:33;;;;;;;21.58;14.00;;;;;;;-6.42;76.36;100554.16;5058057;28;20025;-57
2022/01/25 03:22:05;;;;;;;17.45;12.02;;;;;;;-6.54;75.64;100541.69;5044550;28;20037;-57
2022/01/25 03:24:31;;;;;;;21.55;13.85;;;;;;;-6.67;76.36;100534.16;5061755;28;20048;-57
2022/01/25 03:26:57;;;;;;;21.83;13.68;;;;;;;-6.79;75.30;100530.09;5061034;28;20045;-57
2022/01/25 03:29:23;;;;;;;20.63;12.80;;;;;;;-6.78;76.43;100539.41;5059370;28;20056;-58
2022/01/25 03:31:49;;;;;;;24.80;14.27;;;;;;;-6.88;76.42;100518.59;5046337;28;20356;-57
2022/01/25 03:34:15;;;;;;;20.88;13.93;;;;;;;-7.05;76.77;100535.16;5045104;28;20077;-57
2022/01/25 03:36:42;;;;;;;21.77;13.43;;;;;;;-7.11;78.52;100530.63;5045370;28;20032;-58
2022/01/25 03:39:08;;;;;;;22.17;12.93;;;;;;;-6.90;77.80;100521.00;5049878;28;20068;-57
2022/01/25 03:41:34;;;;;;;23.13;13.98;;;;;;;-6.68;78.55;100522.31;5056907;28;20037;-58
2022/01/25 03:44:01;;;;;;;21.77;13.38;;;;;;;-6.63;77.76;100518.44;5057875;28;20079;-58
2022/01/25 03:49:55;;;;;;;24.33;14.45;;;;;;;-6.80;77.76;100507.34;5053079;28;20044;-56
2022/01/25 03:51:50;;;;;;;23.50;13.80;;;;;;;-6.99;78.61;100511.25;5027047;28;20071;-58
2022/01/25 03:54:17;;;;;;;24.92;14.63;;;;;;;-6.90;78.02;100493.31;5061872;28;20048;-57
2022/01/25 03:56:42;;;;;;;26.42;15.98;;;;;;;-6.94;78.12;100483.81;5044746;28;20079;-58
2022/01/25 03:59:08;;;;;;;24.13;14.85;;;;;;;-6.94;78.19;100494.78;5044913;28;20029;-58
2022/01/25 04:01:35;;;;;;;28.63;15.88;;;;;;;-6.76;79.05;100471.50;5055080;28;20036;-56
2022/01/25 04:04:06;;;;;;;26.67;15.50;;;;;;;-6.82;77.28;100483.72;5057918;28;20024;-57
2022/01/25 04:06:34;;;;;;;23.92;15.52;;;;;;;-6.69;77.53;100482.81;5051059;28;20037;-57
2022/01/25 04:09:02;;;;;;;24.95;15.10;;;;;;;-6.55;78.38;100479.50;5050468;28;20071;-56
2022/01/25 04:11:27;;;;;;;24.95;15.30;;;;;;;-6.44;77.43;100487.66;5054656;28;20025;-57
2022/01/25 04:13:56;;;;;;;24.60;15.52;;;;;;;-6.43;77.09;100476.81;5044227;28;20048;-58
2022/01/25 04:16:30;;;;;;;22.63;14.98;;;;;;;-6.65;77.05;100478.06;5044522;28;20029;-57
2022/01/25 04:26:40;;;;;;;24.20;15.57;;;;;;;-6.37;76.62;100467.13;5060028;28;20075;-56
2022/01/25 04:29:05;;;;;;;27.23;13.95;;;;;;;-6.28;77.07;100466.78;5044279;28;20025;-57
2022/01/25 04:31:31;;;;;;;25.30;15.00;;;;;;;-6.25;77.26;100467.81;5057660;28;20092;-57
2022/01/25 04:50:27;;;;;;;25.13;15.45;;;;;;;-7.11;78.95;100461.03;5043821;28;20030;-55
2022/01/25 04:53:10;;;;;;;30.52;16.67;;;;;;;-6.90;79.78;100442.09;5041592;28;20029;-56
2022/01/25 04:55:43;;;;;;;30.35;16.42;;;;;;;-6.87;79.30;100455.72;5045238;28;20229;-56
2022/01/25 04:58:17;;;;;;;29.38;16.80;;;;;;;-6.90;78.32;100440.44;5043588;28;20033;-57
2022/01/25 05:00:42;;;;;;;25.25;15.95;;;;;;;-6.65;78.50;100429.34;5052794;28;20035;-57
2022/01/25 05:03:15;;;;;;;24.67;15.70;;;;;;;-6.48;78.47;100426.16;5056617;28;20112;-56
2022/01/25 05:06:07;;;;;;;27.08;15.93;;;;;;;-6.45;77.52;100428.00;5056569;28;20033;-56
2022/01/25 05:08:39;;;;;;;31.67;17.35;;;;;;;-6.62;77.38;100421.97;5042017;28;20032;-57
2022/01/25 05:11:10;;;;;;;25.05;15.73;;;;;;;-6.96;78.15;100433.38;5043517;28;20030;-56
2022/01/25 05:19:01;;;;;;;27.77;15.50;;;;;;;-7.07;79.88;100420.94;5050041;28;20040;-57
2022/01/25 05:24:00;;;;;;;30.25;15.75;;;;;;;-7.25;81.09;100414.00;5057112;28;20025;-57
2022/01/25 05:26:27;;;;;;;26.92;16.00;;;;;;;-7.17;79.80;100411.94;5058576;28;20025;-57
2022/01/25 05:28:53;;;;;;;29.33;14.60;;;;;;;-7.33;80.36;100412.66;5041911;28;20025;-58
2022/01/25 05:31:19;;;;;;;28.00;16.55;;;;;;;-7.20;80.17;100400.03;5059580;28;20187;-56
2022/01/25 05:33:45;;;;;;;26.05;14.73;;;;;;;-6.93;80.65;100387.41;5047571;28;20036;-57
2022/01/25 05:36:11;;;;;;;23.85;14.55;;;;;;;-6.80;79.19;100383.97;5054921;28;20040;-58
2022/01/25 05:38:37;;;;;;;25.17;14.93;;;;;;;-6.66;79.23;100385.66;5057146;28;20056;-57
2022/01/25 05:41:04;;;;;;;27.83;15.70;;;;;;;-6.70;79.39;100372.78;5056518;28;20491;-57
2022/01/25 05:46:17;;;;;;;23.70;13.73;;;;;;;-6.99;79.70;100374.44;5049919;28;20351;-57
2022/01/25 05:48:45;;;;;;;25.48;15.20;;;;;;;-6.80;80.02;100364.72;5047340;28;20123;-59
2022/01/25 05:51:11;;;;;;;25.17;14.90;;;;;;;-6.65;79.02;100361.34;5039246;28;20017;-59
2022/01/25 05:53:37;;;;;;;28.67;15.98;;;;;;;-6.72;79.34;100354.22;5044656;28;20040;-57
2022/01/25 05:56:03;;;;;;;24.83;14.57;;;;;;;-6.92;79.57;100346.34;5042870;28;20056;-57
2022/01/25 05:58:29;;;;;;;22.77;14.18;;;;;;;-6.88;79.47;100375.97;5042133;28;20033;-56
2022/01/25 06:00:55;;;;;;;24.73;14.25;;;;;;;-6.77;79.86;100377.47;5059049;28;20032;-57
2022/01/25 06:03:20;;;;;;;23.95;14.52;;;;;;;-6.72;79.50;100374.38;5052475;28;20490;-57
2022/01/25 06:05:46;;;;;;;23.90;14.43;;;;;;;-6.71;79.43;100360.97;5044365;28;20063;-57
2022/01/25 06:08:13;;;;;;;24.85;14.95;;;;;;;-6.72;78.94;100360.13;5041757;28;20222;-57
2022/01/25 06:10:39;;;;;;;24.80;15.07;;;;;;;-6.78;79.89;100364.78;5042635;28;20191;-58
2022/01/25 06:13:05;;;;;;;26.83;15.90;;;;;;;-7.24;78.70;100359.50;5040543;28;20029;-57
2022/01/25 06:15:31;;;;;;;25.60;15.57;;;;;;;-7.11;79.79;100354.47;5045661;28;20044;-57
2022/01/25 06:17:57;;;;;;;26.27;13.75;;;;;;;-7.29;79.07;100367.66;5044974;28;20052;-57
2022/01/25 06:20:23;;;;;;;25.42;15.57;;;;;;;-7.08;79.32;100364.72;5044173;28;20052;-56
2022/01/25 06:22:49;;;;;;;27.08;16.38;;;;;;;-6.93;78.32;100354.66;5047170;28;20101;-56
2022/01/25 06:25:15;;;;;;;27.23;15.38;;;;;;;-6.85;79.03;100353.47;5045778;28;20246;-58
2022/01/25 06:27:42;;;;;;;26.90;15.25;;;;;;;-6.99;78.34;100331.66;5046596;28;20444;-57
2022/01/25 06:30:12;;;;;;;26.38;14.80;;;;;;;-6.73;79.25;100340.75;5044011;28;20030;-57
2022/01/25 06:32:37;;;;;;;28.02;15.07;;;;;;;-6.79;77.58;100330.31;5045164;28;20028;-57
2022/01/25 06:35:04;;;;;;;26.85;14.98;;;;;;;-6.97;77.89;100328.47;5045537;28;20026;-57
2022/01/25 06:37:30;;;;;;;26.02;15.07;;;;;;;-7.03;78.30;100319.66;5045827;28;20085;-57
2022/01/25 06:39:57;;;;;;;27.38;15.40;;;;;;;-6.92;78.30;100312.75;5044908;28;20037;-57
2022/01/25 06:42:26;;;;;;;24.27;14.45;;;;;;;-7.02;78.17;100301.28;5045767;28;20370;-57
2022/01/25 06:44:55;;;;;;;24.55;14.82;;;;;;;-7.12;78.35;100310.78;5045618;28;20044;-57
2022/01/25 06:47:21;;;;;;;25.80;14.50;;;;;;;-6.93;78.47;100304.31;5045792;28;20067;-57
2022/01/25 06:49:46;;;;;;;25.27;14.15;;;;;;;-6.80;78.63;100304.28;5043303;28;20272;-57
2022/01/25 06:52:12;;;;;;;27.80;16.80;;;;;;;-6.68;77.56;100301.59;5043784;28;20029;-57
2022/01/25 06:54:38;;;;;;;26.17;15.50;;;;;;;-6.78;78.33;100292.63;5045501;28;20313;-58
2022/01/25 06:57:04;;;;;;;27.05;15.63;;;;;;;-6.65;77.39;100284.13;5045252;28;20048;-57
2022/01/25 06:59:29;;;;;;;31.23;17.00;;;;;;;-7.25;78.27;100283.19;5044228;28;20025;-57
2022/01/25 07:01:55;;;;;;;27.40;16.75;;;;;;;-7.07;79.39;100285.03;5043585;28;20044;-58
2022/01/25 07:04:20;;;;;;;26.88;16.70;;;;;;;-7.23;79.31;100281.59;5045258;28;20029;-57
2022/01/25 07:06:46;;;;;;;28.00;17.55;;;;;;;-6.84;79.50;100284.72;5044833;28;20037;-58
2022/01/25 07:09:11;;;;;;;32.78;18.13;;;;;;;-6.67;79.35;100280.69;5045471;28;20055;-57
2022/01/25 07:11:37;;;;;;;31.10;17.00;;;;;;;-6.39;79.09;100288.91;5045992;28;20310;-58
2022/01/25 07:14:03;;;;;;;29.88;17.48;;;;;;;-6.65;77.60;100280.75;5043650;28;20025;-58
2022/01/25 07:16:28;;;;;;;33.42;18.80;;;;;;;-6.70;78.05;100275.44;5044994;28;20101;-60
2022/01/25 07:18:54;;;;;;;32.28;18.05;;;;;;;-6.57;78.78;100269.44;5044753;28;20041;-58
2022/01/25 07:21:19;;;;;;;28.85;17.98;;;;;;;-6.38;78.98;100270.47;5045346;28;20324;-57
2022/01/25 07:23:45;;;;;;;33.45;18.75;;;;;;;-6.49;78.08;100265.72;5054252;28;20293;-58
2022/01/25 07:26:10;;;;;;;31.25;18.10;;;;;;;-6.43;77.86;100282.81;5059472;28;20368;-58
2022/01/25 07:28:36;;;;;;;32.67;18.08;;;;;;;-6.29;77.20;100266.81;5059525;28;20036;-58
2022/01/25 07:31:03;;;;;;;32.70;16.92;;;;;;;-6.52;77.36;100268.06;5058327;28;20233;-57
2022/01/25 07:33:29;;;;;;;31.58;17.60;;;;;;;-6.25;76.59;100263.69;5049284;28;20056;-57
2022/01/25 07:35:56;;;;;;;30.02;17.33;;;;;;;-6.59;78.64;100271.03;5044836;28;20029;-57
2022/01/25 07:38:21;;;;;;;33.03;17.88;;;;;;;-6.60;76.86;100260.09;5044143;28;20318;-57
2022/01/25 07:40:47;;;;;;;27.42;17.05;;;;;;;-6.43;78.12;100256.00;5043292;28;20087;-58
2022/01/25 07:43:13;;;;;;;31.75;16.88;;;;;;;-6.25;77.22;100255.28;5044324;28;20204;-58
2022/01/25 07:45:39;;;;;;;29.48;17.77;;;;;;;-6.23;76.02;100253.69;5045485;28;20036;-57
2022/01/25 07:48:06;;;;;;;29.15;17.30;;;;;;;-6.29;77.46;100251.72;5045199;28;20032;-57
2022/01/25 07:50:33;;;;;;;33.15;17.55;;;;;;;-6.46;76.29;100197.88;5043921;28;20060;-56
2022/01/25 07:52:59;;;;;;;31.20;17.45;;;;;;;-6.07;76.75;100248.72;5042346;28;20174;-57
2022/01/25 07:55:25;;;;;;;34.22;17.83;;;;;;;-6.03;75.72;100236.28;5043494;28;20025;-56
2022/01/25 07:57:50;;;;;;;29.40;17.00;;;;;;;-5.97;76.81;100227.38;5043746;28;20080;-57
2022/01/25 08:00:16;;;;;;;28.70;17.10;;;;;;;-5.89;76.05;100217.69;5045886;28;20089;-57
2022/01/25 08:02:44;;;;;;;29.50;16.73;;;;;;;-5.85;76.14;100221.25;5043850;28;20029;-56
2022/01/25 08:05:14;;;;;;;30.15;17.95;;;;;;;-5.83;76.72;100202.84;5044477;28;20026;-57
2022/01/25 08:07:40;;;;;;;30.50;17.55;;;;;;;-5.68;76.59;100212.03;5045106;28;20028;-58
2022/01/25 08:10:06;;;;;;;28.48;16.17;;;;;;;-5.92;74.83;100215.00;5045260;28;20037;-57
2022/01/25 08:12:32;;;;;;;30.50;17.25;;;;;;;-5.92;75.93;100199.88;5044494;28;20069;-57
2022/01/25 08:14:59;;;;;;;27.20;16.58;;;;;;;-6.00;77.01;100191.06;5044621;28;20059;-57
2022/01/25 08:17:24;;;;;;;28.60;16.33;;;;;;;-6.20;77.50;100192.50;5042809;28;20033;-57
2022/01/25 08:19:50;;;;;;;27.88;16.85;;;;;;;-6.05;75.95;100183.25;5043915;28;20290;-57
2022/01/25 08:22:18;;;;;;;27.75;16.52;;;;;;;-5.92;77.01;100178.03;5042826;28;20037;-57
2022/01/25 08:24:44;;;;;;;29.45;17.73;;;;;;;-5.72;76.33;100179.06;5042221;28;20269;-57
2022/01/25 08:27:11;;;;;;;29.08;16.65;;;;;;;-6.15;76.11;100173.47;5043239;28;20029;-57
2022/01/25 08:29:37;;;;;;;30.83;17.20;;;;;;;-6.45;77.91;100178.59;5045855;28;20087;-57
2022/01/25 08:32:04;;;;;;;31.35;17.20;;;;;;;-6.53;77.17;100168.09;5049031;28;20036;-57
2022/01/25 08:34:30;;;;;;;29.58;16.58;;;;;;;-6.52;77.79;100149.69;5055889;28;20025;-58
2022/01/25 08:36:55;;;;;;;27.92;17.02;;;;;;;-6.37;77.46;100154.69;5047627;28;20079;-58
2022/01/25 08:39:23;;;;;;;27.50;17.05;;;;;;;-6.12;76.79;100154.31;5053393;28;20079;-57
2022/01/25 08:41:49;;;;;;;27.98;17.77;;;;;;;-5.95;77.01;100144.25;5058550;28;20294;-57
2022/01/25 08:44:15;;;;;;;27.77;16.63;;;;;;;-5.87;75.43;100149.66;5057862;28;20025;-58
2022/01/25 08:46:40;;;;;;;29.30;17.40;;;;;;;-5.90;76.74;100150.38;5057366;28;20020;-58
2022/01/25 08:49:06;;;;;;;28.33;16.83;;;;;;;-6.03;77.06;100143.84;5058426;28;20025;-57
2022/01/25 08:51:32;;;;;;;23.90;15.93;;;;;;;-6.05;76.72;100130.31;5059573;28;20025;-58
2022/01/25 08:53:59;;;;;;;28.80;16.88;;;;;;;-5.80;75.66;100145.03;5061043;28;20025;-58
2022/01/25 08:56:24;;;;;;;31.80;17.45;;;;;;;-5.68;75.81;100133.84;5047493;28;20349;-58
2022/01/25 08:58:50;;;;;;;26.85;15.98;;;;;;;-5.56;75.72;100124.34;5057548;28;20029;-58
2022/01/25 09:01:15;;;;;;;26.30;16.40;;;;;;;-5.40;76.29;100129.41;5058292;28;20064;-58
2022/01/25 09:03:41;;;;;;;25.30;16.13;;;;;;;-5.45;74.28;100129.97;5058309;28;20025;-57
2022/01/25 09:06:08;;;;;;;30.77;16.88;;;;;;;-5.76;76.02;100060.31;5058272;28;20028;-58
2022/01/25 09:08:34;;;;;;;27.52;16.52;;;;;;;-5.33;76.21;100115.44;5052787;28;20029;-57
2022/01/25 09:11:02;;;;;;;22.98;15.55;;;;;;;-5.58;74.76;100114.19;5042367;28;20269;-58
2022/01/25 09:13:29;;;;;;;26.10;16.38;;;;;;;-5.39;75.77;100121.03;5024650;28;20238;-56
2022/01/25 09:15:55;;;;;;;27.60;15.70;;;;;;;-5.41;74.92;100106.63;5042435;28;20372;-57
2022/01/25 09:18:21;;;;;;;25.90;15.68;;;;;;;-5.29;76.30;100117.28;5043999;28;20041;-56
2022/01/25 09:20:47;;;;;;;28.13;17.25;;;;;;;-5.42;74.72;100093.09;5060389;28;20087;-56
2022/01/25 09:23:16;;;;;;;30.27;16.05;;;;;;;-5.38;74.94;100107.63;5041543;28;20045;-57
2022/01/25 09:25:42;;;;;;;28.90;16.42;;;;;;;-5.43;74.95;100098.97;5051984;28;20029;-58
2022/01/25 09:28:07;;;;;;;25.80;16.40;;;;;;;-5.39;75.14;100084.81;5043525;28;20033;-57
2022/01/25 09:30:33;;;;;;;28.98;16.75;;;;;;;-5.33;74.71;100087.66;5042795;28;20041;-58
2022/01/25 09:32:59;;;;;;;24.67;15.50;;;;;;;-5.20;75.66;100090.00;5043031;28;20318;-57
2022/01/25 09:35:25;;;;;;;28.20;16.02;;;;;;;-5.07;75.27;100078.81;5042750;28;20037;-57
2022/01/25 09:37:51;;;;;;;27.85;17.33;;;;;;;-5.13;76.12;100080.19;5042473;28;20037;-56
2022/01/25 09:40:18;;;;;;;24.05;15.25;;;;;;;-4.95;75.48;100065.91;5041998;28;20044;-57
2022/01/25 09:42:44;;;;;;;28.58;16.85;;;;;;;-5.18;73.58;100069.88;5042479;28;20033;-56
2022/01/25 09:45:10;;;;;;;27.20;16.17;;;;;;;-5.45;74.81;100055.13;5044756;28;20037;-56
2022/01/25 09:47:40;;;;;;;29.85;16.60;;;;;;;-5.65;75.16;100054.13;5044450;28;20354;-56
2022/01/25 09:50:06;;;;;;;26.05;15.32;;;;;;;-6.05;75.22;100038.72;5047978;28;20120;-56
2022/01/25 09:52:32;;;;;;;26.27;16.13;;;;;;;-5.97;76.89;100053.41;5046718;28;20052;-57
2022/01/25 09:55:02;;;;;;;27.92;16.48;;;;;;;-6.15;77.43;100014.69;5047558;28;20029;-56
2022/01/25 09:57:28;;;;;;;29.90;17.55;;;;;;;-6.08;77.05;100041.94;5047286;28;20101;-58
2022/01/25 09:59:56;;;;;;;25.25;14.98;;;;;;;-5.85;78.07;100032.97;5047035;28;20029;-56
2022/01/25 10:02:43;;;;;;;25.85;15.90;;;;;;;-5.87;76.00;100011.00;5045896;28;20061;-56
2022/01/25 10:05:30;;;;;;;26.55;15.32;;;;;;;-5.51;77.44;100027.06;5047278;28;20045;-56
2022/01/25 10:08:08;;;;;;;27.25;14.98;;;;;;;-5.97;76.53;99955.09;5049860;28;20059;-57
2022/01/25 10:10:37;;;;;;;24.08;14.95;;;;;;;-5.62;75.67;99925.63;5059104;28;20025;-57
2022/01/25 10:13:17;;;;;;;25.88;15.43;;;;;;;-5.10;76.36;99994.47;5044006;28;20213;-58
2022/01/25 10:15:44;;;;;;;24.17;14.73;;;;;;;-5.40;74.68;100004.84;5043825;28;20040;-57
2022/01/25 10:18:11;;;;;;;25.25;14.27;;;;;;;-5.38;75.59;99986.47;5046045;28;20100;-59
2022/01/25 10:20:42;;;;;;;21.83;13.90;;;;;;;-5.87;75.79;99922.72;5046300;28;20210;-59
2022/01/25 10:23:18;;;;;;;21.80;13.45;;;;;;;-5.26;76.00;100015.63;5046480;28;20033;-58
2022/01/25 10:25:47;;;;;;;18.40;12.15;;;;;;;-5.44;75.20;99963.50;5045362;28;20076;-59
2022/01/25 10:28:14;;;;;;;27.80;15.48;;;;;;;-5.08;76.73;99980.28;5045273;28;20028;-59
2022/01/25 10:30:49;;;;;;;20.25;12.70;;;;;;;-5.25;74.49;99971.91;5043941;28;20063;-58
2022/01/25 10:33:43;;;;;;;19.10;12.35;;;;;;;-5.04;74.47;99957.75;5047275;28;20029;-58
2022/01/25 10:36:14;;;;;;;21.48;13.15;;;;;;;-4.89;76.05;99980.34;5044217;28;20040;-59
2022/01/25 10:38:41;;;;;;;;;;;;;;;-4.93;74.06;99952.31;5046776;28;20418;-58
2022/01/25 10:41:10;;;;;;;22.75;12.93;;;;;;;-4.85;75.07;99948.50;5046081;28;19908;-59
2022/01/25 10:43:38;;;;;;;20.42;12.63;;;;;;;-4.82;75.59;99947.75;5046494;28;20032;-59
2022/01/25 10:46:12;;;;;;;21.02;13.50;;;;;;;-4.76;75.51;99943.84;5047089;28;20041;-58
2022/01/25 10:48:41;;;;;;;20.50;12.32;;;;;;;-5.13;75.23;99937.16;5046667;28;20036;-59
2022/01/25 10:51:14;;;;;;;22.50;12.48;;;;;;;-5.38;74.66;99936.00;5044305;28;20068;-59
2022/01/25 10:53:40;;;;;;;21.33;11.57;;;;;;;-5.26;74.94;99919.72;5045693;28;20033;-58
2022/01/25 10:56:07;;;;;;;17.13;11.18;;;;;;;-5.82;76.57;99858.28;5045799;28;20025;-59
2022/01/25 10:58:42;;;;;;;17.92;11.02;;;;;;;-5.50;76.92;99905.19;5044642;28;20095;-58
2022/01/25 11:01:12;;;;;;;16.42;10.18;;;;;;;-5.19;76.23;99921.72;5044940;28;20310;-60
2022/01/25 11:03:42;;;;;;;17.30;11.88;;;;;;;-5.09;75.82;99902.81;5045164;28;20273;-58
2022/01/25 11:06:19;;;;;;;18.20;10.80;;;;;;;-5.77;75.09;99850.13;5044899;28;20065;-58
2022/01/25 11:08:48;;;;;;;16.33;9.70;;;;;;;-5.66;76.72;99900.19;5045876;28;20307;-58
2022/01/25 11:11:27;;;;;;;16.38;9.82;;;;;;;-5.95;75.89;99824.06;5046020;28;20048;-59
2022/01/25 11:13:54;;;;;;;14.93;9.70;;;;;;;-5.82;77.91;99886.00;5046125;28;20025;-58
2022/01/25 11:16:21;;;;;;;14.80;9.43;;;;;;;-5.67;78.35;99875.75;5026802;28;20072;-59
2022/01/25 11:18:46;;;;;;;16.25;9.32;;;;;;;-5.79;77.47;99874.41;5044463;28;20029;-60
2022/01/25 11:21:12;;;;;;;14.13;8.57;;;;;;;-5.61;77.35;99868.50;5044215;28;20029;-60
2022/01/25 11:23:41;;;;;;;13.80;9.18;;;;;;;-5.80;76.81;99781.03;5043587;28;20052;-60
2022/01/25 11:26:09;;;;;;;13.35;8.75;;;;;;;-5.12;75.86;99878.28;5045137;28;20329;-60
2022/01/25 11:28:37;;;;;;;13.52;8.70;;;;;;;-5.64;76.82;99860.75;5045781;28;20025;-59
2022/01/25 11:31:07;;;;;;;15.18;9.05;;;;;;;-5.90;76.57;99828.53;5044973;28;20083;-59
2022/01/25 11:33:33;;;;;;;13.05;8.15;;;;;;;-5.78;77.17;99850.91;5056473;28;20037;-59
2022/01/25 11:36:05;;;;;;;13.60;9.13;;;;;;;-5.97;76.79;99776.09;5061598;28;20032;-58
2022/01/25 11:38:57;;;;;;;15.25;9.57;;;;;;;-5.31;76.19;99840.41;5044923;28;20290;-59
2022/01/25 11:41:25;;;;;;;14.77;9.77;;;;;;;-5.28;75.57;99853.16;5060581;28;20056;-58
2022/01/25 11:44:16;;;;;;;14.70;9.50;;;;;;;-5.24;76.62;99845.78;5055289;28;20087;-58
2022/01/25 11:46:48;;;;;;;14.95;9.80;;;;;;;-5.28;75.85;99846.44;5028871;28;20069;-58
2022/01/25 11:49:20;;;;;;;13.65;9.63;;;;;;;-5.41;76.39;99822.31;5043835;28;20458;-58
2022/01/25 11:52:04;;;;;;;16.58;10.32;;;;;;;-5.66;77.27;99852.28;5054424;28;20039;-58
2022/01/25 11:54:30;;;;;;;15.32;10.10;;;;;;;-5.58;77.65;99840.88;5043948;28;20079;-59
2022/01/25 11:57:19;;;;;;;15.95;10.10;;;;;;;-5.94;77.21;99765.28;5044966;28;20315;-59
2022/01/25 11:59:54;;;;;;;15.40;9.77;;;;;;;-5.86;77.44;99761.44;5044837;28;20072;-58
2022/01/25 12:02:34;;;;;;;16.95;10.30;;;;;;;-5.18;77.50;99830.06;5057357;28;20318;-58
2022/01/25 12:05:05;;;;;;;17.65;10.25;;;;;;;-5.09;76.00;99847.25;5046756;28;20322;-58
2022/01/25 12:07:38;;;;;;;15.18;9.63;;;;;;;-5.04;75.26;99838.25;5055969;28;20373;-58
2022/01/25 12:10:24;;;;;;;17.85;10.77;;;;;;;-5.04;76.19;99831.50;5058734;28;20041;-58
2022/01/25 12:13:27;;;;;;;16.23;10.25;;;;;;;-5.11;75.72;99837.09;5046302;28;20278;-57
2022/01/25 12:16:28;;;;;;;16.02;10.07;;;;;;;-4.98;77.05;99835.13;5043816;28;20036;-58
2022/01/25 12:18:57;;;;;;;17.70;10.70;;;;;;;-4.94;74.91;99834.47;5021518;28;20038;-58
2022/01/25 12:21:48;;;;;;;53.10;25.67;;;;;;;-4.90;77.33;99834.66;5041209;28;20314;-59
2022/01/25 12:24:24;;;;;;;15.27;11.05;;;;;;;-4.99;75.76;99833.38;5044674;28;20029;-58
2022/01/25 12:27:05;;;;;;;17.25;10.95;;;;;;;-5.18;75.37;99839.28;5044001;28;20111;-58
2022/01/25 12:29:32;;;;;;;;;;;;;;;-5.23;74.83;99829.84;5043581;28;20097;-58
2022/01/25 12:32:17;;;;;;;15.43;9.27;;;;;;;-5.22;76.57;99829.03;5044589;28;19955;-58
2022/01/25 12:35:06;;;;;;;16.38;10.98;;;;;;;-5.28;77.07;99827.94;5041962;28;20029;-58
2022/01/25 12:37:53;;;;;;;18.75;11.65;;;;;;;-5.38;75.88;99826.66;5042912;28;20099;-58
2022/01/25 12:40:25;;;;;;;17.83;11.40;;;;;;;-5.38;75.09;99824.97;5043846;28;20055;-58
2022/01/25 12:43:01;;;;;;;;;;;;;;;-5.29;74.83;99826.19;5043912;28;20331;-58
2022/01/25 12:45:32;;;;;;;19.10;11.70;;;;;;;-5.08;77.13;99824.59;5042570;28;19917;-58
2022/01/25 12:48:03;;;;;;;18.60;12.23;;;;;;;-4.98;76.31;99818.28;5045448;28;20028;-58
2022/01/25 12:50:29;;;;;;;17.48;10.98;;;;;;;-4.96;75.68;99813.31;5043956;28;20108;-58
2022/01/25 12:52:57;;;;;;;16.67;11.10;;;;;;;-5.12;75.62;99806.75;5044585;28;20035;-58
2022/01/25 12:55:26;;;;;;;17.98;9.57;;;;;;;-5.49;74.28;99734.47;5043548;28;20021;-57
2022/01/25 12:57:53;;;;;;;17.88;9.90;;;;;;;-5.06;75.22;99809.50;5043874;28;20035;-57
2022/01/25 13:00:22;;;;;;;15.45;9.93;;;;;;;-5.84;74.38;99729.59;5043799;28;20027;-57
2022/01/25 13:02:48;;;;;;;19.52;10.35;;;;;;;-5.42;74.40;99791.97;5043029;28;20036;-57
2022/01/25 13:05:21;;;;;;;17.60;10.90;;;;;;;-5.58;75.98;99805.56;5042656;28;20029;-57
2022/01/25 13:07:48;;;;;;;16.52;10.07;;;;;;;-5.34;76.77;99785.63;5042531;28;20223;-59
2022/01/25 13:10:29;;;;;;;17.13;9.63;;;;;;;-5.26;76.20;99785.94;5044068;28;20302;-58
2022/01/25 13:12:58;;;;;;;;;;;;;;;-5.22;77.39;99785.28;5043343;28;20038;-58
2022/01/25 13:18:14;;;;;;;14.95;9.73;;;;;;;-5.58;75.41;99787.91;5056957;28;20043;-57
2022/01/25 13:20:42;;;;;;;15.50;10.07;;;;;;;-5.42;74.57;99776.84;5040540;28;20033;-57
2022/01/25 13:23:08;;;;;;;14.68;9.73;;;;;;;-5.35;76.73;99773.78;5042949;28;20025;-58